sensor_id;sensor_type;location;lat;lon;timestamp;temperature;humidity
56300;DHT22;42209;6.376;-10.782;2023-08-30T00:00:33;23.20;86.30
56300;DHT22;42209;6.376;-10.782;2023-08-30T00:03:02;23.30;87.20
56300;DHT22;42209;6.376;-10.782;2023-08-30T00:05:30;23.40;88.20
56300;DHT22;42209;6.376;-10.782;2023-08-30T00:07:58;23.40;88.50
56300;DHT22;42209;6.376;-10.782;2023-08-30T00:10:27;23.40;89.00
56300;DHT22;42209;6.376;-10.782;2023-08-30T00:12:55;23.50;88.60
56300;DHT22;42209;6.376;-10.782;2023-08-30T00:15:23;23.60;89.20
56300;DHT22;42209;6.376;-10.782;2023-08-30T00:17:51;23.60;89.30
56300;DHT22;42209;6.376;-10.782;2023-08-30T00:20:21;23.70;88.60
56300;DHT22;42209;6.376;-10.782;2023-08-30T00:22:49;23.50;79.20
56300;DHT22;42209;6.376;-10.782;2023-08-30T00:25:17;23.10;76.00
56300;DHT22;42209;6.376;-10.782;2023-08-30T00:27:45;22.80;73.20
56300;DHT22;42209;6.376;-10.782;2023-08-30T00:30:13;22.60;71.00
56300;DHT22;42209;6.376;-10.782;2023-08-30T00:32:42;22.50;71.60
56300;DHT22;42209;6.376;-10.782;2023-08-30T00:35:10;22.70;78.60
56300;DHT22;42209;6.376;-10.782;2023-08-30T00:37:38;22.80;81.10
56300;DHT22;42209;6.376;-10.782;2023-08-30T00:40:06;22.90;82.70
56300;DHT22;42209;6.376;-10.782;2023-08-30T00:42:34;23.00;84.10
56300;DHT22;42209;6.376;-10.782;2023-08-30T00:45:03;23.20;85.30
56300;DHT22;42209;6.376;-10.782;2023-08-30T00:47:32;23.20;86.20
56300;DHT22;42209;6.376;-10.782;2023-08-30T00:50:00;23.30;87.20
56300;DHT22;42209;6.376;-10.782;2023-08-30T00:52:28;23.30;87.90
56300;DHT22;42209;6.376;-10.782;2023-08-30T00:54:56;23.40;88.40
56300;DHT22;42209;6.376;-10.782;2023-08-30T00:57:24;23.40;88.70
56300;DHT22;42209;6.376;-10.782;2023-08-30T00:59:53;23.50;88.80
56300;DHT22;42209;6.376;-10.782;2023-08-30T01:02:21;23.60;88.80
56300;DHT22;42209;6.376;-10.782;2023-08-30T01:04:49;23.60;88.70
56300;DHT22;42209;6.376;-10.782;2023-08-30T01:07:17;23.70;87.50
56300;DHT22;42209;6.376;-10.782;2023-08-30T01:09:45;23.40;79.50
56300;DHT22;42209;6.376;-10.782;2023-08-30T01:12:17;23.00;75.70
56300;DHT22;42209;6.376;-10.782;2023-08-30T01:15:09;22.80;73.20
56300;DHT22;42209;6.376;-10.782;2023-08-30T01:17:39;22.80;77.90
56300;DHT22;42209;6.376;-10.782;2023-08-30T01:20:09;22.90;83.10
56300;DHT22;42209;6.376;-10.782;2023-08-30T01:22:48;23.10;84.90
56300;DHT22;42209;6.376;-10.782;2023-08-30T01:28:08;23.20;87.00
56300;DHT22;42209;6.376;-10.782;2023-08-30T01:30:37;23.30;88.00
56300;DHT22;42209;6.376;-10.782;2023-08-30T01:33:08;23.30;89.30
56300;DHT22;42209;6.376;-10.782;2023-08-30T01:35:36;23.40;89.30
56300;DHT22;42209;6.376;-10.782;2023-08-30T01:38:06;23.50;89.50
56300;DHT22;42209;6.376;-10.782;2023-08-30T01:40:37;23.50;89.60
56300;DHT22;42209;6.376;-10.782;2023-08-30T01:43:05;23.60;89.20
56300;DHT22;42209;6.376;-10.782;2023-08-30T01:45:36;23.60;89.60
56300;DHT22;42209;6.376;-10.782;2023-08-30T01:48:07;23.70;86.30
56300;DHT22;42209;6.376;-10.782;2023-08-30T01:50:41;23.30;79.60
56300;DHT22;42209;6.376;-10.782;2023-08-30T01:53:12;23.00;75.50
56300;DHT22;42209;6.376;-10.782;2023-08-30T01:55:41;22.90;81.50
56300;DHT22;42209;6.376;-10.782;2023-08-30T01:58:10;23.00;84.70
56300;DHT22;42209;6.376;-10.782;2023-08-30T02:00:38;23.10;86.40
56300;DHT22;42209;6.376;-10.782;2023-08-30T02:03:08;23.20;87.40
56300;DHT22;42209;6.376;-10.782;2023-08-30T02:05:37;23.30;88.40
56300;DHT22;42209;6.376;-10.782;2023-08-30T02:08:13;23.30;89.20
56300;DHT22;42209;6.376;-10.782;2023-08-30T02:10:45;23.40;90.10
56300;DHT22;42209;6.376;-10.782;2023-08-30T02:13:17;23.40;90.20
56300;DHT22;42209;6.376;-10.782;2023-08-30T02:15:47;23.50;90.30
56300;DHT22;42209;6.376;-10.782;2023-08-30T02:18:17;23.60;90.30
56300;DHT22;42209;6.376;-10.782;2023-08-30T02:20:45;23.60;90.30
56300;DHT22;42209;6.376;-10.782;2023-08-30T02:23:13;23.70;90.20
56300;DHT22;42209;6.376;-10.782;2023-08-30T02:25:42;23.40;81.20
56300;DHT22;42209;6.376;-10.782;2023-08-30T02:28:10;23.00;77.00
56300;DHT22;42209;6.376;-10.782;2023-08-30T02:30:39;22.90;79.60
56300;DHT22;42209;6.376;-10.782;2023-08-30T02:33:07;23.00;84.80
56300;DHT22;42209;6.376;-10.782;2023-08-30T02:35:37;23.10;86.50
56300;DHT22;42209;6.376;-10.782;2023-08-30T02:38:05;23.20;88.10
56300;DHT22;42209;6.376;-10.782;2023-08-30T02:40:33;23.30;89.20
56300;DHT22;42209;6.376;-10.782;2023-08-30T02:43:02;23.40;90.00
56300;DHT22;42209;6.376;-10.782;2023-08-30T02:45:30;23.40;90.30
56300;DHT22;42209;6.376;-10.782;2023-08-30T02:47:58;23.50;90.50
56300;DHT22;42209;6.376;-10.782;2023-08-30T02:50:26;23.50;90.80
56300;DHT22;42209;6.376;-10.782;2023-08-30T02:52:54;23.60;90.80
56300;DHT22;42209;6.376;-10.782;2023-08-30T02:55:22;23.60;90.80
56300;DHT22;42209;6.376;-10.782;2023-08-30T02:57:50;23.70;90.80
56300;DHT22;42209;6.376;-10.782;2023-08-30T03:00:18;23.60;84.10
56300;DHT22;42209;6.376;-10.782;2023-08-30T03:02:49;23.20;79.70
56300;DHT22;42209;6.376;-10.782;2023-08-30T03:05:18;22.90;78.60
56300;DHT22;42209;6.376;-10.782;2023-08-30T03:07:46;22.90;83.30
56300;DHT22;42209;6.376;-10.782;2023-08-30T03:10:14;23.10;86.40
56300;DHT22;42209;6.376;-10.782;2023-08-30T03:12:42;23.20;87.80
56300;DHT22;42209;6.376;-10.782;2023-08-30T03:15:10;23.20;88.70
56300;DHT22;42209;6.376;-10.782;2023-08-30T03:17:38;23.30;89.60
56300;DHT22;42209;6.376;-10.782;2023-08-30T03:20:07;23.40;90.20
56300;DHT22;42209;6.376;-10.782;2023-08-30T03:22:35;23.40;90.50
56300;DHT22;42209;6.376;-10.782;2023-08-30T03:25:03;23.50;90.80
56300;DHT22;42209;6.376;-10.782;2023-08-30T03:27:34;23.50;91.00
56300;DHT22;42209;6.376;-10.782;2023-08-30T03:30:03;23.50;90.90
56300;DHT22;42209;6.376;-10.782;2023-08-30T03:32:33;23.60;91.00
56300;DHT22;42209;6.376;-10.782;2023-08-30T03:35:02;23.70;91.30
56300;DHT22;42209;6.376;-10.782;2023-08-30T03:37:30;23.70;90.90
56300;DHT22;42209;6.376;-10.782;2023-08-30T03:39:58;23.60;83.20
56300;DHT22;42209;6.376;-10.782;2023-08-30T03:42:26;23.10;79.00
56300;DHT22;42209;6.376;-10.782;2023-08-30T03:44:55;22.90;79.60
56300;DHT22;42209;6.376;-10.782;2023-08-30T03:47:23;23.00;84.90
56300;DHT22;42209;6.376;-10.782;2023-08-30T03:49:51;23.10;86.90
56300;DHT22;42209;6.376;-10.782;2023-08-30T03:52:19;23.20;87.90
56300;DHT22;42209;6.376;-10.782;2023-08-30T03:54:47;23.30;89.20
56300;DHT22;42209;6.376;-10.782;2023-08-30T03:57:16;23.30;89.70
56300;DHT22;42209;6.376;-10.782;2023-08-30T03:59:44;23.40;90.30
56300;DHT22;42209;6.376;-10.782;2023-08-30T04:02:12;23.40;90.50
56300;DHT22;42209;6.376;-10.782;2023-08-30T04:04:40;23.50;90.70
56300;DHT22;42209;6.376;-10.782;2023-08-30T04:07:09;23.60;90.90
56300;DHT22;42209;6.376;-10.782;2023-08-30T04:09:37;23.60;91.00
56300;DHT22;42209;6.376;-10.782;2023-08-30T04:12:05;23.60;90.80
56300;DHT22;42209;6.376;-10.782;2023-08-30T04:14:33;23.70;90.90
56300;DHT22;42209;6.376;-10.782;2023-08-30T04:17:02;23.70;90.80
56300;DHT22;42209;6.376;-10.782;2023-08-30T04:19:30;23.80;90.70
56300;DHT22;42209;6.376;-10.782;2023-08-30T04:22:00;23.50;82.20
56300;DHT22;42209;6.376;-10.782;2023-08-30T04:24:28;23.10;78.30
56300;DHT22;42209;6.376;-10.782;2023-08-30T04:26:56;23.00;82.90
56300;DHT22;42209;6.376;-10.782;2023-08-30T04:29:24;23.10;86.90
56300;DHT22;42209;6.376;-10.782;2023-08-30T04:31:52;23.20;88.40
56300;DHT22;42209;6.376;-10.782;2023-08-30T04:34:21;23.30;89.30
56300;DHT22;42209;6.376;-10.782;2023-08-30T04:36:49;23.40;90.00
56300;DHT22;42209;6.376;-10.782;2023-08-30T04:39:17;23.40;90.40
56300;DHT22;42209;6.376;-10.782;2023-08-30T04:41:47;23.40;90.60
56300;DHT22;42209;6.376;-10.782;2023-08-30T04:44:15;23.50;90.80
56300;DHT22;42209;6.376;-10.782;2023-08-30T04:46:43;23.50;90.60
56300;DHT22;42209;6.376;-10.782;2023-08-30T04:49:11;23.60;91.00
56300;DHT22;42209;6.376;-10.782;2023-08-30T04:51:39;23.60;91.00
56300;DHT22;42209;6.376;-10.782;2023-08-30T04:54:07;23.70;91.00
56300;DHT22;42209;6.376;-10.782;2023-08-30T04:56:35;23.70;90.90
56300;DHT22;42209;6.376;-10.782;2023-08-30T04:59:04;23.60;84.00
56300;DHT22;42209;6.376;-10.782;2023-08-30T05:01:32;23.10;79.20
56300;DHT22;42209;6.376;-10.782;2023-08-30T05:04:00;23.00;82.30
56300;DHT22;42209;6.376;-10.782;2023-08-30T05:06:28;23.00;86.40
56300;DHT22;42209;6.376;-10.782;2023-08-30T05:08:56;23.10;88.10
56300;DHT22;42209;6.376;-10.782;2023-08-30T05:11:24;23.20;89.10
56300;DHT22;42209;6.376;-10.782;2023-08-30T05:13:52;23.30;90.00
56300;DHT22;42209;6.376;-10.782;2023-08-30T05:16:20;23.40;90.30
56300;DHT22;42209;6.376;-10.782;2023-08-30T05:18:50;23.40;90.90
56300;DHT22;42209;6.376;-10.782;2023-08-30T05:21:18;23.50;90.70
56300;DHT22;42209;6.376;-10.782;2023-08-30T05:23:46;23.50;90.80
56300;DHT22;42209;6.376;-10.782;2023-08-30T05:26:14;23.50;91.10
56300;DHT22;42209;6.376;-10.782;2023-08-30T05:28:42;23.60;91.00
56300;DHT22;42209;6.376;-10.782;2023-08-30T05:31:10;23.60;91.00
56300;DHT22;42209;6.376;-10.782;2023-08-30T05:33:57;23.60;91.00
56300;DHT22;42209;6.376;-10.782;2023-08-30T05:36:47;23.70;90.90
56300;DHT22;42209;6.376;-10.782;2023-08-30T05:39:34;23.40;82.00
56300;DHT22;42209;6.376;-10.782;2023-08-30T05:42:02;23.00;77.90
56300;DHT22;42209;6.376;-10.782;2023-08-30T05:44:30;22.90;83.30
56300;DHT22;42209;6.376;-10.782;2023-08-30T05:46:58;23.00;86.80
56300;DHT22;42209;6.376;-10.782;2023-08-30T05:49:26;23.20;88.20
56300;DHT22;42209;6.376;-10.782;2023-08-30T05:51:54;23.20;89.30
56300;DHT22;42209;6.376;-10.782;2023-08-30T05:54:22;23.30;90.00
56300;DHT22;42209;6.376;-10.782;2023-08-30T05:56:51;23.30;90.30
56300;DHT22;42209;6.376;-10.782;2023-08-30T05:59:19;23.40;90.60
56300;DHT22;42209;6.376;-10.782;2023-08-30T06:01:47;23.40;90.80
56300;DHT22;42209;6.376;-10.782;2023-08-30T06:04:15;23.50;91.00
56300;DHT22;42209;6.376;-10.782;2023-08-30T06:06:43;23.50;91.00
56300;DHT22;42209;6.376;-10.782;2023-08-30T06:09:11;23.60;91.10
56300;DHT22;42209;6.376;-10.782;2023-08-30T06:11:39;23.60;90.80
56300;DHT22;42209;6.376;-10.782;2023-08-30T06:14:07;23.70;91.00
56300;DHT22;42209;6.376;-10.782;2023-08-30T06:16:35;23.70;87.40
56300;DHT22;42209;6.376;-10.782;2023-08-30T06:19:03;23.30;80.50
56300;DHT22;42209;6.376;-10.782;2023-08-30T06:21:31;22.90;79.30
56300;DHT22;42209;6.376;-10.782;2023-08-30T06:23:59;22.90;85.20
56300;DHT22;42209;6.376;-10.782;2023-08-30T06:26:27;23.00;87.50
56300;DHT22;42209;6.376;-10.782;2023-08-30T06:28:55;23.10;89.10
56300;DHT22;42209;6.376;-10.782;2023-08-30T06:31:31;23.20;89.90
56300;DHT22;42209;6.376;-10.782;2023-08-30T06:34:00;23.30;90.20
56300;DHT22;42209;6.376;-10.782;2023-08-30T06:36:28;23.40;90.60
56300;DHT22;42209;6.376;-10.782;2023-08-30T06:38:56;23.40;90.60
56300;DHT22;42209;6.376;-10.782;2023-08-30T06:41:24;23.40;90.90
56300;DHT22;42209;6.376;-10.782;2023-08-30T06:43:52;23.50;91.20
56300;DHT22;42209;6.376;-10.782;2023-08-30T06:46:20;23.50;91.10
56300;DHT22;42209;6.376;-10.782;2023-08-30T06:48:48;23.60;91.20
56300;DHT22;42209;6.376;-10.782;2023-08-30T06:51:16;23.60;91.20
56300;DHT22;42209;6.376;-10.782;2023-08-30T06:53:44;23.70;91.10
56300;DHT22;42209;6.376;-10.782;2023-08-30T06:56:12;23.70;90.80
56300;DHT22;42209;6.376;-10.782;2023-08-30T06:58:41;23.40;82.20
56300;DHT22;42209;6.376;-10.782;2023-08-30T07:01:09;23.10;78.90
56300;DHT22;42209;6.376;-10.782;2023-08-30T07:03:37;22.80;80.60
56300;DHT22;42209;6.376;-10.782;2023-08-30T07:06:06;22.90;86.30
56300;DHT22;42209;6.376;-10.782;2023-08-30T07:08:34;23.10;88.30
56300;DHT22;42209;6.376;-10.782;2023-08-30T07:11:02;23.20;89.80
56300;DHT22;42209;6.376;-10.782;2023-08-30T07:13:30;23.20;90.10
56300;DHT22;42209;6.376;-10.782;2023-08-30T07:15:58;23.30;90.60
56300;DHT22;42209;6.376;-10.782;2023-08-30T07:18:26;23.40;90.80
56300;DHT22;42209;6.376;-10.782;2023-08-30T07:20:54;23.40;91.30
56300;DHT22;42209;6.376;-10.782;2023-08-30T07:23:22;23.40;91.70
56300;DHT22;42209;6.376;-10.782;2023-08-30T07:25:51;23.50;92.20
56300;DHT22;42209;6.376;-10.782;2023-08-30T07:28:19;23.50;92.40
56300;DHT22;42209;6.376;-10.782;2023-08-30T07:30:47;23.60;92.80
56300;DHT22;42209;6.376;-10.782;2023-08-30T07:33:15;23.60;93.10
56300;DHT22;42209;6.376;-10.782;2023-08-30T07:35:43;23.60;90.30
56300;DHT22;42209;6.376;-10.782;2023-08-30T07:38:11;23.30;84.30
56300;DHT22;42209;6.376;-10.782;2023-08-30T07:40:39;22.90;80.80
56300;DHT22;42209;6.376;-10.782;2023-08-30T07:43:07;22.70;79.70
56300;DHT22;42209;6.376;-10.782;2023-08-30T07:45:35;22.90;86.60
56300;DHT22;42209;6.376;-10.782;2023-08-30T07:48:03;23.00;89.20
56300;DHT22;42209;6.376;-10.782;2023-08-30T07:50:32;23.10;90.20
56300;DHT22;42209;6.376;-10.782;2023-08-30T07:53:00;23.20;90.80
56300;DHT22;42209;6.376;-10.782;2023-08-30T07:55:28;23.20;91.00
56300;DHT22;42209;6.376;-10.782;2023-08-30T07:57:56;23.30;91.50
56300;DHT22;42209;6.376;-10.782;2023-08-30T08:00:24;23.40;91.60
56300;DHT22;42209;6.376;-10.782;2023-08-30T08:02:52;23.40;91.80
56300;DHT22;42209;6.376;-10.782;2023-08-30T08:05:20;23.40;92.10
56300;DHT22;42209;6.376;-10.782;2023-08-30T08:07:51;23.50;92.20
56300;DHT22;42209;6.376;-10.782;2023-08-30T08:10:19;23.50;92.50
56300;DHT22;42209;6.376;-10.782;2023-08-30T08:12:47;23.50;92.60
56300;DHT22;42209;6.376;-10.782;2023-08-30T08:15:16;23.60;93.10
56300;DHT22;42209;6.376;-10.782;2023-08-30T08:17:44;23.60;93.10
56300;DHT22;42209;6.376;-10.782;2023-08-30T08:20:12;23.70;93.20
56300;DHT22;42209;6.376;-10.782;2023-08-30T08:22:40;23.70;92.80
56300;DHT22;42209;6.376;-10.782;2023-08-30T08:25:14;23.70;91.20
56300;DHT22;42209;6.376;-10.782;2023-08-30T08:27:43;23.40;85.80
56300;DHT22;42209;6.376;-10.782;2023-08-30T08:30:11;23.00;81.60
56300;DHT22;42209;6.376;-10.782;2023-08-30T08:32:39;22.90;86.50
56300;DHT22;42209;6.376;-10.782;2023-08-30T08:35:08;23.10;90.10
56300;DHT22;42209;6.376;-10.782;2023-08-30T08:37:36;23.20;90.60
56300;DHT22;42209;6.376;-10.782;2023-08-30T08:40:04;23.30;91.10
56300;DHT22;42209;6.376;-10.782;2023-08-30T08:42:33;23.40;91.50
56300;DHT22;42209;6.376;-10.782;2023-08-30T08:45:01;23.40;91.90
56300;DHT22;42209;6.376;-10.782;2023-08-30T08:47:30;23.50;92.20
56300;DHT22;42209;6.376;-10.782;2023-08-30T08:49:59;23.60;92.40
56300;DHT22;42209;6.376;-10.782;2023-08-30T08:52:27;23.60;92.60
56300;DHT22;42209;6.376;-10.782;2023-08-30T08:55:02;23.60;93.00
56300;DHT22;42209;6.376;-10.782;2023-08-30T08:57:30;23.70;93.00
56300;DHT22;42209;6.376;-10.782;2023-08-30T08:59:59;23.60;92.90
56300;DHT22;42209;6.376;-10.782;2023-08-30T09:02:27;23.70;93.00
56300;DHT22;42209;6.376;-10.782;2023-08-30T09:04:56;23.70;92.90
56300;DHT22;42209;6.376;-10.782;2023-08-30T09:07:24;23.70;90.80
56300;DHT22;42209;6.376;-10.782;2023-08-30T09:09:53;23.40;85.10
56300;DHT22;42209;6.376;-10.782;2023-08-30T09:12:21;23.00;81.10
56300;DHT22;42209;6.376;-10.782;2023-08-30T09:14:53;22.80;79.20
56300;DHT22;42209;6.376;-10.782;2023-08-30T09:17:21;22.90;85.20
56300;DHT22;42209;6.376;-10.782;2023-08-30T09:19:49;23.00;87.90
56300;DHT22;42209;6.376;-10.782;2023-08-30T09:22:17;23.10;89.60
56300;DHT22;42209;6.376;-10.782;2023-08-30T09:24:45;23.20;90.20
56300;DHT22;42209;6.376;-10.782;2023-08-30T09:27:13;23.30;90.60
56300;DHT22;42209;6.376;-10.782;2023-08-30T09:29:42;23.30;90.90
56300;DHT22;42209;6.376;-10.782;2023-08-30T09:32:12;23.40;91.30
56300;DHT22;42209;6.376;-10.782;2023-08-30T09:34:45;23.40;91.50
56300;DHT22;42209;6.376;-10.782;2023-08-30T09:37:22;23.50;91.90
56300;DHT22;42209;6.376;-10.782;2023-08-30T09:40:02;23.50;92.00
56300;DHT22;42209;6.376;-10.782;2023-08-30T09:42:31;23.60;92.40
56300;DHT22;42209;6.376;-10.782;2023-08-30T09:45:00;23.60;92.50
56300;DHT22;42209;6.376;-10.782;2023-08-30T09:47:29;23.60;92.60
56300;DHT22;42209;6.376;-10.782;2023-08-30T09:49:57;23.70;92.70
56300;DHT22;42209;6.376;-10.782;2023-08-30T09:52:26;23.50;88.50
56300;DHT22;42209;6.376;-10.782;2023-08-30T09:54:56;23.20;83.20
56300;DHT22;42209;6.376;-10.782;2023-08-30T09:57:24;22.90;80.20
56300;DHT22;42209;6.376;-10.782;2023-08-30T09:59:52;22.80;78.00
56300;DHT22;42209;6.376;-10.782;2023-08-30T10:02:21;22.60;74.90
56300;DHT22;42209;6.376;-10.782;2023-08-30T10:04:49;22.50;73.00
56300;DHT22;42209;6.376;-10.782;2023-08-30T10:07:18;22.40;74.50
56300;DHT22;42209;6.376;-10.782;2023-08-30T10:09:54;22.60;81.00
56300;DHT22;42209;6.376;-10.782;2023-08-30T10:12:31;22.70;83.60
56300;DHT22;42209;6.376;-10.782;2023-08-30T10:15:16;22.80;85.70
56300;DHT22;42209;6.376;-10.782;2023-08-30T10:17:45;23.00;87.80
56300;DHT22;42209;6.376;-10.782;2023-08-30T10:20:13;23.10;89.00
56300;DHT22;42209;6.376;-10.782;2023-08-30T10:22:42;23.10;90.10
56300;DHT22;42209;6.376;-10.782;2023-08-30T10:25:12;23.20;90.40
56300;DHT22;42209;6.376;-10.782;2023-08-30T10:27:41;23.30;90.90
56300;DHT22;42209;6.376;-10.782;2023-08-30T10:30:10;23.30;91.20
56300;DHT22;42209;6.376;-10.782;2023-08-30T10:32:39;23.40;91.50
56300;DHT22;42209;6.376;-10.782;2023-08-30T10:35:14;23.40;91.60
56300;DHT22;42209;6.376;-10.782;2023-08-30T10:37:53;23.50;91.80
56300;DHT22;42209;6.376;-10.782;2023-08-30T10:40:21;23.50;91.90
56300;DHT22;42209;6.376;-10.782;2023-08-30T10:43:02;23.60;92.00
56300;DHT22;42209;6.376;-10.782;2023-08-30T10:45:31;23.60;92.10
56300;DHT22;42209;6.376;-10.782;2023-08-30T10:47:59;23.70;92.10
56300;DHT22;42209;6.376;-10.782;2023-08-30T10:50:28;23.50;87.90
56300;DHT22;42209;6.376;-10.782;2023-08-30T10:52:57;23.20;82.40
56300;DHT22;42209;6.376;-10.782;2023-08-30T10:55:25;22.80;81.90
56300;DHT22;42209;6.376;-10.782;2023-08-30T10:58:00;22.90;86.50
56300;DHT22;42209;6.376;-10.782;2023-08-30T11:00:30;23.00;88.90
56300;DHT22;42209;6.376;-10.782;2023-08-30T11:02:59;23.10;90.20
56300;DHT22;42209;6.376;-10.782;2023-08-30T11:05:28;23.30;90.50
56300;DHT22;42209;6.376;-10.782;2023-08-30T11:07:57;23.30;91.00
56300;DHT22;42209;6.376;-10.782;2023-08-30T11:10:26;23.30;91.20
56300;DHT22;42209;6.376;-10.782;2023-08-30T11:12:55;23.40;91.60
56300;DHT22;42209;6.376;-10.782;2023-08-30T11:15:23;23.50;92.00
56300;DHT22;42209;6.376;-10.782;2023-08-30T11:18:01;23.50;92.20
56300;DHT22;42209;6.376;-10.782;2023-08-30T11:20:30;23.60;92.40
56300;DHT22;42209;6.376;-10.782;2023-08-30T11:22:58;23.60;92.50
56300;DHT22;42209;6.376;-10.782;2023-08-30T11:25:26;23.70;92.70
56300;DHT22;42209;6.376;-10.782;2023-08-30T11:28:05;23.70;92.70
56300;DHT22;42209;6.376;-10.782;2023-08-30T11:30:33;23.40;86.10
56300;DHT22;42209;6.376;-10.782;2023-08-30T11:33:17;23.00;82.00
56300;DHT22;42209;6.376;-10.782;2023-08-30T11:35:48;23.00;85.40
56300;DHT22;42209;6.376;-10.782;2023-08-30T11:38:21;23.10;88.70
56300;DHT22;42209;6.376;-10.782;2023-08-30T11:40:51;23.20;90.40
56300;DHT22;42209;6.376;-10.782;2023-08-30T11:43:19;23.20;91.00
56300;DHT22;42209;6.376;-10.782;2023-08-30T11:45:55;23.30;91.40
56300;DHT22;42209;6.376;-10.782;2023-08-30T11:48:23;23.40;91.80
56300;DHT22;42209;6.376;-10.782;2023-08-30T11:50:52;23.50;91.80
56300;DHT22;42209;6.376;-10.782;2023-08-30T11:53:20;23.50;92.40
56300;DHT22;42209;6.376;-10.782;2023-08-30T11:55:49;23.60;92.50
56300;DHT22;42209;6.376;-10.782;2023-08-30T11:58:20;23.60;92.80
56300;DHT22;42209;6.376;-10.782;2023-08-30T12:00:52;23.70;93.00
56300;DHT22;42209;6.376;-10.782;2023-08-30T12:03:21;23.70;93.10
56300;DHT22;42209;6.376;-10.782;2023-08-30T12:05:50;23.80;93.20
56300;DHT22;42209;6.376;-10.782;2023-08-30T12:08:23;23.70;90.10
56300;DHT22;42209;6.376;-10.782;2023-08-30T12:10:52;23.30;85.20
56300;DHT22;42209;6.376;-10.782;2023-08-30T12:13:30;22.90;81.20
56300;DHT22;42209;6.376;-10.782;2023-08-30T12:15:58;22.90;83.60
56300;DHT22;42209;6.376;-10.782;2023-08-30T12:18:28;23.10;88.60
56300;DHT22;42209;6.376;-10.782;2023-08-30T12:21:02;23.20;90.20
56300;DHT22;42209;6.376;-10.782;2023-08-30T12:23:31;23.30;90.70
56300;DHT22;42209;6.376;-10.782;2023-08-30T12:26:03;23.40;91.30
56300;DHT22;42209;6.376;-10.782;2023-08-30T12:28:32;23.40;91.70
56300;DHT22;42209;6.376;-10.782;2023-08-30T12:33:34;23.60;91.60
56300;DHT22;42209;6.376;-10.782;2023-08-30T12:36:03;23.70;92.00
56300;DHT22;42209;6.376;-10.782;2023-08-30T12:38:32;23.60;88.60
56300;DHT22;42209;6.376;-10.782;2023-08-30T12:41:01;23.30;83.00
56300;DHT22;42209;6.376;-10.782;2023-08-30T12:43:29;22.90;79.50
56300;DHT22;42209;6.376;-10.782;2023-08-30T12:45:58;22.90;83.30
56300;DHT22;42209;6.376;-10.782;2023-08-30T12:48:26;23.10;87.50
56300;DHT22;42209;6.376;-10.782;2023-08-30T12:50:55;23.20;89.70
56300;DHT22;42209;6.376;-10.782;2023-08-30T12:53:23;23.30;90.40
56300;DHT22;42209;6.376;-10.782;2023-08-30T12:55:52;23.40;90.80
56300;DHT22;42209;6.376;-10.782;2023-08-30T12:58:20;23.50;91.10
56300;DHT22;42209;6.376;-10.782;2023-08-30T13:00:48;23.60;91.50
56300;DHT22;42209;6.376;-10.782;2023-08-30T13:03:17;23.60;91.90
56300;DHT22;42209;6.376;-10.782;2023-08-30T13:05:45;23.70;92.10
56300;DHT22;42209;6.376;-10.782;2023-08-30T13:08:14;23.70;92.30
56300;DHT22;42209;6.376;-10.782;2023-08-30T13:10:42;23.70;92.40
56300;DHT22;42209;6.376;-10.782;2023-08-30T13:13:11;23.80;92.70
56300;DHT22;42209;6.376;-10.782;2023-08-30T13:15:39;23.70;89.00
56300;DHT22;42209;6.376;-10.782;2023-08-30T13:18:07;23.30;83.70
56300;DHT22;42209;6.376;-10.782;2023-08-30T13:20:39;23.10;81.00
56300;DHT22;42209;6.376;-10.782;2023-08-30T13:23:07;22.90;78.10
56300;DHT22;42209;6.376;-10.782;2023-08-30T13:25:40;22.80;76.30
56300;DHT22;42209;6.376;-10.782;2023-08-30T13:28:09;22.70;74.90
56300;DHT22;42209;6.376;-10.782;2023-08-30T13:30:44;22.60;72.40
56300;DHT22;42209;6.376;-10.782;2023-08-30T13:33:13;22.50;70.90
56300;DHT22;42209;6.376;-10.782;2023-08-30T13:35:42;22.30;69.30
56300;DHT22;42209;6.376;-10.782;2023-08-30T13:38:10;22.30;71.10
56300;DHT22;42209;6.376;-10.782;2023-08-30T13:40:39;22.60;77.90
56300;DHT22;42209;6.376;-10.782;2023-08-30T13:43:07;22.70;81.20
56300;DHT22;42209;6.376;-10.782;2023-08-30T13:45:36;22.90;83.40
56300;DHT22;42209;6.376;-10.782;2023-08-30T13:48:05;23.00;85.00
56300;DHT22;42209;6.376;-10.782;2023-08-30T13:50:34;23.10;86.00
56300;DHT22;42209;6.376;-10.782;2023-08-30T13:53:08;23.20;86.90
56300;DHT22;42209;6.376;-10.782;2023-08-30T13:55:37;23.20;87.40
56300;DHT22;42209;6.376;-10.782;2023-08-30T13:58:05;23.30;88.20
56300;DHT22;42209;6.376;-10.782;2023-08-30T14:00:34;23.40;89.10
56300;DHT22;42209;6.376;-10.782;2023-08-30T14:03:03;23.40;89.70
56300;DHT22;42209;6.376;-10.782;2023-08-30T14:05:31;23.50;90.00
56300;DHT22;42209;6.376;-10.782;2023-08-30T14:08:00;23.60;90.10
56300;DHT22;42209;6.376;-10.782;2023-08-30T14:10:28;23.60;90.20
56300;DHT22;42209;6.376;-10.782;2023-08-30T14:12:56;23.70;90.10
56300;DHT22;42209;6.376;-10.782;2023-08-30T14:15:27;23.40;81.50
56300;DHT22;42209;6.376;-10.782;2023-08-30T14:17:55;23.10;77.60
56300;DHT22;42209;6.376;-10.782;2023-08-30T14:20:23;22.80;76.50
56300;DHT22;42209;6.376;-10.782;2023-08-30T14:22:52;22.90;82.70
56300;DHT22;42209;6.376;-10.782;2023-08-30T14:25:20;23.10;85.10
56300;DHT22;42209;6.376;-10.782;2023-08-30T14:27:49;23.20;86.80
56300;DHT22;42209;6.376;-10.782;2023-08-30T14:30:17;23.30;88.00
56300;DHT22;42209;6.376;-10.782;2023-08-30T14:32:46;23.40;89.30
56300;DHT22;42209;6.376;-10.782;2023-08-30T14:35:14;23.40;89.60
56300;DHT22;42209;6.376;-10.782;2023-08-30T14:37:43;23.50;90.30
56300;DHT22;42209;6.376;-10.782;2023-08-30T14:40:11;23.60;90.50
56300;DHT22;42209;6.376;-10.782;2023-08-30T14:42:40;23.60;90.70
56300;DHT22;42209;6.376;-10.782;2023-08-30T14:45:08;23.70;90.80
56300;DHT22;42209;6.376;-10.782;2023-08-30T14:47:37;23.70;90.50
56300;DHT22;42209;6.376;-10.782;2023-08-30T14:50:06;23.50;82.70
56300;DHT22;42209;6.376;-10.782;2023-08-30T14:52:35;23.10;78.70
56300;DHT22;42209;6.376;-10.782;2023-08-30T14:55:04;22.80;76.00
56300;DHT22;42209;6.376;-10.782;2023-08-30T14:57:36;22.70;74.30
56300;DHT22;42209;6.376;-10.782;2023-08-30T15:00:05;22.60;71.90
56300;DHT22;42209;6.376;-10.782;2023-08-30T15:02:34;22.50;70.40
56300;DHT22;42209;6.376;-10.782;2023-08-30T15:05:04;22.50;70.40
56300;DHT22;42209;6.376;-10.782;2023-08-30T15:07:32;22.60;76.60
56300;DHT22;42209;6.376;-10.782;2023-08-30T15:10:01;22.80;81.00
56300;DHT22;42209;6.376;-10.782;2023-08-30T15:12:32;23.00;83.80
56300;DHT22;42209;6.376;-10.782;2023-08-30T15:15:03;23.10;85.60
56300;DHT22;42209;6.376;-10.782;2023-08-30T15:17:31;23.20;87.40
56300;DHT22;42209;6.376;-10.782;2023-08-30T15:20:00;23.30;88.90
56300;DHT22;42209;6.376;-10.782;2023-08-30T15:22:29;23.40;90.40
56300;DHT22;42209;6.376;-10.782;2023-08-30T15:24:57;23.60;91.00
56300;DHT22;42209;6.376;-10.782;2023-08-30T15:27:27;23.70;91.90
56300;DHT22;42209;6.376;-10.782;2023-08-30T15:29:56;23.60;90.20
56300;DHT22;42209;6.376;-10.782;2023-08-30T15:32:31;23.60;89.10